KSBY Airport (Salisbury-Ocean City Wicomico Rgnl) Information

FAA: SBY - ICAO: KSBY

KSBY Airport Location

State Maryland
County Wicomico
City Salisbury
KSBY Airport is 4 miles southeast of Salisbury, MD.
Latitude 38-20-24.6820N
Longitude 075-30-34.1210W
Elevation 52ft

KSBY Airport METARs

METAR KSBY 251641Z 20011KT 10SM SCT026 SCT032 BKN041 26/20 A2992 RMK AO2 T02560200
Altimeter 29.92"
Temperature 25.6°C (78.1°F)
Wind 200° at 11KT
Clouds scattered at 2,600ft scattered at 3,200ft broken at 4,100ft
Visibility 10.0mi
Time observed: 2021-10-25T16:41:00Z

KSBY Airport Details

Status Operational
Activation February 1944
Ownership Public
Usage Public
Chart WASHINGTON
ATC on-site Yes
Beacon schedule sunset-sunrise
Beacon color clear green

KSBY Airport Contacts

Owner WICOMICO COUNTY
Owner address PO BOX 870, SALISBURY, MD 21803
Owner phone 410-548-4801
Manager GARY L. KING
Manager address P.O. BOX 553, PRINCESS ANNE, MD 21853-5718
Manager phone 410-726-6770

KSBY Airport (Salisbury-Ocean City Wicomico Rgnl) Radio Frequencies

KSBY (Airport) Radio Frequencies

UNICOM 122.95
Common traffic advisory frequency (CTAF) 119.425